sensor_id;sensor_type;location;lat;lon;timestamp;pressure;altitude;pressure_sealevel;temperature;humidity
17054;BME280;8643;48.824;11.422;2023-07-13T00:01:25;96842.50;;;17.41;100.00
17054;BME280;8643;48.824;11.422;2023-07-13T00:03:55;96852.44;;;17.43;100.00
17054;BME280;8643;48.824;11.422;2023-07-13T00:06:24;96861.53;;;17.47;100.00
17054;BME280;8643;48.824;11.422;2023-07-13T00:08:53;96869.81;;;17.43;100.00
17054;BME280;8643;48.824;11.422;2023-07-13T00:11:22;96878.81;;;17.33;100.00
17054;BME280;8643;48.824;11.422;2023-07-13T00:13:51;96872.06;;;17.34;100.00
17054;BME280;8643;48.824;11.422;2023-07-13T00:16:20;96883.97;;;17.34;100.00
17054;BME280;8643;48.824;11.422;2023-07-13T00:18:51;96879.19;;;17.31;100.00
17054;BME280;8643;48.824;11.422;2023-07-13T00:21:20;96882.72;;;17.32;100.00
17054;BME280;8643;48.824;11.422;2023-07-13T00:23:49;96876.00;;;17.29;100.00
17054;BME280;8643;48.824;11.422;2023-07-13T00:26:17;96881.94;;;17.31;100.00
17054;BME280;8643;48.824;11.422;2023-07-13T00:28:48;96880.75;;;17.32;100.00
17054;BME280;8643;48.824;11.422;2023-07-13T00:31:17;96879.97;;;17.32;100.00
17054;BME280;8643;48.824;11.422;2023-07-13T00:33:47;96881.59;;;17.36;100.00
17054;BME280;8643;48.824;11.422;2023-07-13T00:36:19;96870.53;;;17.36;100.00
17054;BME280;8643;48.824;11.422;2023-07-13T00:38:50;96874.94;;;17.41;100.00
17054;BME280;8643;48.824;11.422;2023-07-13T00:41:19;96877.72;;;17.41;100.00
17054;BME280;8643;48.824;11.422;2023-07-13T00:43:48;96867.31;;;17.31;100.00
17054;BME280;8643;48.824;11.422;2023-07-13T00:46:22;96860.16;;;17.26;100.00
17054;BME280;8643;48.824;11.422;2023-07-13T00:48:55;96857.78;;;17.28;100.00
17054;BME280;8643;48.824;11.422;2023-07-13T00:51:32;96857.41;;;17.30;100.00
17054;BME280;8643;48.824;11.422;2023-07-13T00:54:05;96863.72;;;17.27;100.00
17054;BME280;8643;48.824;11.422;2023-07-13T00:56:36;96868.72;;;17.17;100.00
17054;BME280;8643;48.824;11.422;2023-07-13T00:59:08;96862.41;;;17.17;100.00
17054;BME280;8643;48.824;11.422;2023-07-13T01:01:40;96861.28;;;17.21;100.00
17054;BME280;8643;48.824;11.422;2023-07-13T01:04:09;96871.22;;;17.26;100.00
17054;BME280;8643;48.824;11.422;2023-07-13T01:06:41;96864.38;;;17.16;100.00
17054;BME280;8643;48.824;11.422;2023-07-13T01:09:12;96868.72;;;17.17;100.00
17054;BME280;8643;48.824;11.422;2023-07-13T01:11:41;96870.34;;;17.18;100.00
17054;BME280;8643;48.824;11.422;2023-07-13T01:14:13;96855.41;;;17.27;100.00
17054;BME280;8643;48.824;11.422;2023-07-13T01:16:45;96858.97;;;17.27;100.00
17054;BME280;8643;48.824;11.422;2023-07-13T01:19:32;96861.69;;;17.23;100.00
17054;BME280;8643;48.824;11.422;2023-07-13T01:22:11;96851.81;;;17.22;100.00
17054;BME280;8643;48.824;11.422;2023-07-13T01:24:45;96855.78;;;17.25;100.00
17054;BME280;8643;48.824;11.422;2023-07-13T01:27:21;96856.69;;;17.36;100.00
17054;BME280;8643;48.824;11.422;2023-07-13T01:29:51;96854.72;;;17.37;100.00
17054;BME280;8643;48.824;11.422;2023-07-13T01:32:22;96853.53;;;17.34;100.00
17054;BME280;8643;48.824;11.422;2023-07-13T01:34:55;96853.88;;;17.29;100.00
17054;BME280;8643;48.824;11.422;2023-07-13T01:37:27;96851.16;;;17.36;100.00
17054;BME280;8643;48.824;11.422;2023-07-13T01:39:56;96856.66;;;17.33;100.00
17054;BME280;8643;48.824;11.422;2023-07-13T01:42:25;96846.69;;;17.25;100.00
17054;BME280;8643;48.824;11.422;2023-07-13T01:44:53;96843.03;;;17.17;100.00
17054;BME280;8643;48.824;11.422;2023-07-13T01:47:23;96848.91;;;17.12;100.00
17054;BME280;8643;48.824;11.422;2023-07-13T01:49:53;96841.69;;;17.03;100.00
17054;BME280;8643;48.824;11.422;2023-07-13T01:52:22;96829.00;;;16.99;100.00
17054;BME280;8643;48.824;11.422;2023-07-13T01:54:52;96831.75;;;16.99;100.00
17054;BME280;8643;48.824;11.422;2023-07-13T01:57:20;96829.41;;;17.01;100.00
17054;BME280;8643;48.824;11.422;2023-07-13T01:59:48;96820.69;;;16.99;100.00
17054;BME280;8643;48.824;11.422;2023-07-13T02:02:17;96813.25;;;17.03;100.00
17054;BME280;8643;48.824;11.422;2023-07-13T02:04:46;96810.50;;;17.03;100.00
17054;BME280;8643;48.824;11.422;2023-07-13T02:07:15;96811.72;;;17.09;100.00
17054;BME280;8643;48.824;11.422;2023-07-13T02:09:43;96826.78;;;17.12;100.00
17054;BME280;8643;48.824;11.422;2023-07-13T02:12:13;96819.69;;;17.14;100.00
17054;BME280;8643;48.824;11.422;2023-07-13T02:14:42;96829.22;;;17.17;100.00
17054;BME280;8643;48.824;11.422;2023-07-13T02:17:11;96828.41;;;17.16;100.00
17054;BME280;8643;48.824;11.422;2023-07-13T02:19:39;96832.69;;;17.10;100.00
17054;BME280;8643;48.824;11.422;2023-07-13T02:22:07;96826.38;;;17.10;100.00
17054;BME280;8643;48.824;11.422;2023-07-13T02:24:36;96833.41;;;17.03;100.00
17054;BME280;8643;48.824;11.422;2023-07-13T02:27:05;96838.41;;;16.94;100.00
17054;BME280;8643;48.824;11.422;2023-07-13T02:29:35;96843.50;;;16.89;100.00
17054;BME280;8643;48.824;11.422;2023-07-13T02:32:05;96837.66;;;16.97;100.00
17054;BME280;8643;48.824;11.422;2023-07-13T02:34:34;96843.69;;;17.03;100.00
17054;BME280;8643;48.824;11.422;2023-07-13T02:37:04;96846.03;;;17.04;100.00
17054;BME280;8643;48.824;11.422;2023-07-13T02:39:34;96847.28;;;17.07;100.00
17054;BME280;8643;48.824;11.422;2023-07-13T02:42:04;96852.88;;;17.14;100.00
17054;BME280;8643;48.824;11.422;2023-07-13T02:44:32;96846.53;;;17.10;100.00
17054;BME280;8643;48.824;11.422;2023-07-13T02:47:02;96854.34;;;17.04;100.00
17054;BME280;8643;48.824;11.422;2023-07-13T02:49:31;96845.63;;;17.02;100.00
17054;BME280;8643;48.824;11.422;2023-07-13T02:51:59;96852.25;;;16.94;100.00
17054;BME280;8643;48.824;11.422;2023-07-13T02:54:28;96857.31;;;16.89;100.00
17054;BME280;8643;48.824;11.422;2023-07-13T02:56:56;96861.84;;;16.74;100.00
17054;BME280;8643;48.824;11.422;2023-07-13T02:59:25;96864.50;;;16.66;100.00
17054;BME280;8643;48.824;11.422;2023-07-13T03:01:53;96880.25;;;16.62;100.00
17054;BME280;8643;48.824;11.422;2023-07-13T03:04:24;96874.72;;;16.62;100.00
17054;BME280;8643;48.824;11.422;2023-07-13T03:06:52;96875.34;;;16.52;100.00
17054;BME280;8643;48.824;11.422;2023-07-13T03:09:32;96875.28;;;16.48;100.00
17054;BME280;8643;48.824;11.422;2023-07-13T03:12:03;96890.66;;;16.46;100.00
17054;BME280;8643;48.824;11.422;2023-07-13T03:14:33;96886.84;;;16.54;100.00
17054;BME280;8643;48.824;11.422;2023-07-13T03:17:04;96887.63;;;16.55;100.00
17054;BME280;8643;48.824;11.422;2023-07-13T03:19:38;96891.91;;;16.52;100.00
17054;BME280;8643;48.824;11.422;2023-07-13T03:22:06;96892.66;;;16.49;100.00
17054;BME280;8643;48.824;11.422;2023-07-13T03:24:37;96900.66;;;16.54;100.00
17054;BME280;8643;48.824;11.422;2023-07-13T03:27:07;96905.78;;;16.56;100.00
17054;BME280;8643;48.824;11.422;2023-07-13T03:29:39;96902.59;;;16.54;100.00
17054;BME280;8643;48.824;11.422;2023-07-13T03:32:08;96911.75;;;16.58;100.00
17054;BME280;8643;48.824;11.422;2023-07-13T03:34:39;96909.38;;;16.56;100.00
17054;BME280;8643;48.824;11.422;2023-07-13T03:37:08;96915.00;;;16.63;100.00
17054;BME280;8643;48.824;11.422;2023-07-13T03:39:37;96909.13;;;16.68;100.00
17054;BME280;8643;48.824;11.422;2023-07-13T03:42:06;96910.78;;;16.73;100.00
17054;BME280;8643;48.824;11.422;2023-07-13T03:44:35;96914.78;;;16.76;100.00
17054;BME280;8643;48.824;11.422;2023-07-13T03:47:04;96904.88;;;16.75;100.00
17054;BME280;8643;48.824;11.422;2023-07-13T03:49:35;96898.63;;;16.78;100.00
17054;BME280;8643;48.824;11.422;2023-07-13T03:52:06;96904.56;;;16.80;100.00
17054;BME280;8643;48.824;11.422;2023-07-13T03:54:34;96903.78;;;16.79;100.00
17054;BME280;8643;48.824;11.422;2023-07-13T03:57:04;96899.78;;;16.77;100.00
17054;BME280;8643;48.824;11.422;2023-07-13T03:59:35;96905.63;;;16.72;100.00
17054;BME280;8643;48.824;11.422;2023-07-13T04:02:04;96903.72;;;16.76;100.00
17054;BME280;8643;48.824;11.422;2023-07-13T04:04:34;96910.38;;;16.71;100.00
17054;BME280;8643;48.824;11.422;2023-07-13T04:07:03;96916.56;;;16.88;100.00
17054;BME280;8643;48.824;11.422;2023-07-13T04:09:32;96907.78;;;16.82;100.00
17054;BME280;8643;48.824;11.422;2023-07-13T04:12:01;96915.41;;;16.89;100.00
17054;BME280;8643;48.824;11.422;2023-07-13T04:14:30;96914.16;;;16.86;100.00
17054;BME280;8643;48.824;11.422;2023-07-13T04:16:58;96913.72;;;16.84;100.00
17054;BME280;8643;48.824;11.422;2023-07-13T04:19:27;96906.59;;;16.83;100.00
17054;BME280;8643;48.824;11.422;2023-07-13T04:21:55;96920.41;;;16.83;100.00
17054;BME280;8643;48.824;11.422;2023-07-13T04:24:24;96922.34;;;16.79;100.00
17054;BME280;8643;48.824;11.422;2023-07-13T04:26:55;96918.25;;;16.69;100.00
17054;BME280;8643;48.824;11.422;2023-07-13T04:29:26;96924.09;;;16.91;100.00
17054;BME280;8643;48.824;11.422;2023-07-13T04:31:55;96929.31;;;16.96;100.00
17054;BME280;8643;48.824;11.422;2023-07-13T04:34:23;96926.09;;;16.90;100.00
17054;BME280;8643;48.824;11.422;2023-07-13T04:36:52;96930.63;;;16.79;100.00
17054;BME280;8643;48.824;11.422;2023-07-13T04:39:21;96930.69;;;16.82;100.00
17054;BME280;8643;48.824;11.422;2023-07-13T04:41:49;96927.50;;;16.80;100.00
17054;BME280;8643;48.824;11.422;2023-07-13T04:44:19;96939.16;;;16.93;100.00
17054;BME280;8643;48.824;11.422;2023-07-13T04:46:47;96947.09;;;16.72;100.00
17054;BME280;8643;48.824;11.422;2023-07-13T04:49:15;96941.75;;;16.82;100.00
17054;BME280;8643;48.824;11.422;2023-07-13T04:51:44;96942.78;;;16.97;100.00
17054;BME280;8643;48.824;11.422;2023-07-13T04:54:12;96947.13;;;16.98;100.00
17054;BME280;8643;48.824;11.422;2023-07-13T04:56:41;96945.53;;;16.97;100.00
17054;BME280;8643;48.824;11.422;2023-07-13T04:59:10;96953.88;;;17.01;100.00
17054;BME280;8643;48.824;11.422;2023-07-13T05:01:40;96957.75;;;16.96;100.00
17054;BME280;8643;48.824;11.422;2023-07-13T05:04:09;96967.00;;;16.81;100.00
17054;BME280;8643;48.824;11.422;2023-07-13T05:06:37;96968.06;;;16.73;100.00
17054;BME280;8643;48.824;11.422;2023-07-13T05:09:06;96971.50;;;16.89;100.00
17054;BME280;8643;48.824;11.422;2023-07-13T05:11:35;96978.63;;;16.90;100.00
17054;BME280;8643;48.824;11.422;2023-07-13T05:14:03;96978.34;;;16.99;100.00
17054;BME280;8643;48.824;11.422;2023-07-13T05:16:32;96983.59;;;17.08;100.00
17054;BME280;8643;48.824;11.422;2023-07-13T05:19:02;96990.38;;;17.10;100.00
17054;BME280;8643;48.824;11.422;2023-07-13T05:21:30;96997.31;;;16.97;100.00
17054;BME280;8643;48.824;11.422;2023-07-13T05:23:59;96988.13;;;16.93;100.00
17054;BME280;8643;48.824;11.422;2023-07-13T05:26:45;96990.28;;;16.80;100.00
17054;BME280;8643;48.824;11.422;2023-07-13T05:29:13;96986.47;;;16.88;100.00
17054;BME280;8643;48.824;11.422;2023-07-13T05:31:42;96989.41;;;16.99;100.00
17054;BME280;8643;48.824;11.422;2023-07-13T05:34:14;96994.78;;;16.88;100.00
17054;BME280;8643;48.824;11.422;2023-07-13T05:36:43;96981.94;;;16.76;100.00
17054;BME280;8643;48.824;11.422;2023-07-13T05:39:11;97000.13;;;16.77;100.00
17054;BME280;8643;48.824;11.422;2023-07-13T05:41:40;96994.69;;;16.84;100.00
17054;BME280;8643;48.824;11.422;2023-07-13T05:44:08;96997.38;;;16.77;100.00
17054;BME280;8643;48.824;11.422;2023-07-13T05:46:37;96999.09;;;16.85;100.00
17054;BME280;8643;48.824;11.422;2023-07-13T05:49:05;96999.69;;;16.98;100.00
17054;BME280;8643;48.824;11.422;2023-07-13T05:51:35;96998.50;;;17.26;100.00
17054;BME280;8643;48.824;11.422;2023-07-13T05:54:04;97002.81;;;17.23;100.00
17054;BME280;8643;48.824;11.422;2023-07-13T05:56:32;96997.28;;;17.54;100.00
17054;BME280;8643;48.824;11.422;2023-07-13T05:59:01;97003.53;;;17.81;100.00
17054;BME280;8643;48.824;11.422;2023-07-13T06:01:30;97002.88;;;17.88;100.00
17054;BME280;8643;48.824;11.422;2023-07-13T06:03:59;97002.25;;;18.05;100.00
17054;BME280;8643;48.824;11.422;2023-07-13T06:06:28;96999.66;;;18.23;100.00
17054;BME280;8643;48.824;11.422;2023-07-13T06:08:58;97001.47;;;18.49;100.00
17054;BME280;8643;48.824;11.422;2023-07-13T06:11:27;97003.53;;;18.56;100.00
17054;BME280;8643;48.824;11.422;2023-07-13T06:13:57;97000.81;;;18.63;100.00
17054;BME280;8643;48.824;11.422;2023-07-13T06:16:25;96993.78;;;18.73;100.00
17054;BME280;8643;48.824;11.422;2023-07-13T06:18:54;97001.63;;;19.16;100.00
17054;BME280;8643;48.824;11.422;2023-07-13T06:21:23;96999.59;;;19.75;100.00
17054;BME280;8643;48.824;11.422;2023-07-13T06:23:53;97007.28;;;20.29;100.00
17054;BME280;8643;48.824;11.422;2023-07-13T06:26:23;96996.19;;;20.50;100.00
17054;BME280;8643;48.824;11.422;2023-07-13T06:28:52;97001.00;;;20.75;100.00
17054;BME280;8643;48.824;11.422;2023-07-13T06:31:20;97002.50;;;20.29;100.00
17054;BME280;8643;48.824;11.422;2023-07-13T06:33:49;97005.66;;;20.10;100.00
17054;BME280;8643;48.824;11.422;2023-07-13T06:36:17;97008.44;;;20.17;100.00
17054;BME280;8643;48.824;11.422;2023-07-13T06:38:46;97017.63;;;20.36;100.00
17054;BME280;8643;48.824;11.422;2023-07-13T06:41:15;97007.69;;;20.56;100.00
17054;BME280;8643;48.824;11.422;2023-07-13T06:43:44;97010.94;;;20.80;100.00
17054;BME280;8643;48.824;11.422;2023-07-13T06:46:13;97013.69;;;21.01;99.51
17054;BME280;8643;48.824;11.422;2023-07-13T06:48:42;97019.19;;;21.63;100.00
17054;BME280;8643;48.824;11.422;2023-07-13T06:51:10;97023.69;;;22.16;100.00
17054;BME280;8643;48.824;11.422;2023-07-13T06:53:39;97034.19;;;21.87;92.46
17054;BME280;8643;48.824;11.422;2023-07-13T06:56:09;97041.53;;;20.87;94.54
17054;BME280;8643;48.824;11.422;2023-07-13T06:58:38;97039.47;;;20.48;100.00
17054;BME280;8643;48.824;11.422;2023-07-13T07:01:09;97041.78;;;20.17;100.00
17054;BME280;8643;48.824;11.422;2023-07-13T07:03:38;97046.31;;;19.63;100.00
17054;BME280;8643;48.824;11.422;2023-07-13T07:06:16;97051.72;;;19.37;100.00
17054;BME280;8643;48.824;11.422;2023-07-13T07:08:45;97051.09;;;19.66;100.00
17054;BME280;8643;48.824;11.422;2023-07-13T07:11:17;97070.81;;;20.23;100.00
17054;BME280;8643;48.824;11.422;2023-07-13T07:13:46;97048.09;;;20.00;100.00
17054;BME280;8643;48.824;11.422;2023-07-13T07:16:17;97062.63;;;19.68;100.00
17054;BME280;8643;48.824;11.422;2023-07-13T07:18:46;97050.38;;;19.80;100.00
17054;BME280;8643;48.824;11.422;2023-07-13T07:21:15;97065.41;;;20.88;100.00
17054;BME280;8643;48.824;11.422;2023-07-13T07:23:44;97069.69;;;21.79;100.00
17054;BME280;8643;48.824;11.422;2023-07-13T07:26:13;97069.06;;;22.35;88.43
17054;BME280;8643;48.824;11.422;2023-07-13T07:28:41;97074.47;;;22.63;87.84
17054;BME280;8643;48.824;11.422;2023-07-13T07:31:16;97084.38;;;22.75;82.63
17054;BME280;8643;48.824;11.422;2023-07-13T07:33:48;97075.38;;;23.02;79.51
17054;BME280;8643;48.824;11.422;2023-07-13T07:36:17;97071.63;;;21.82;86.25
17054;BME280;8643;48.824;11.422;2023-07-13T07:38:48;97068.34;;;22.12;82.74
17054;BME280;8643;48.824;11.422;2023-07-13T07:41:17;97075.25;;;22.67;85.01
17054;BME280;8643;48.824;11.422;2023-07-13T07:43:48;97089.56;;;22.69;77.73
17054;BME280;8643;48.824;11.422;2023-07-13T07:46:18;97072.84;;;23.22;84.44
17054;BME280;8643;48.824;11.422;2023-07-13T07:48:46;97079.41;;;23.46;73.30
17054;BME280;8643;48.824;11.422;2023-07-13T07:51:15;97082.16;;;23.91;75.56
17054;BME280;8643;48.824;11.422;2023-07-13T07:53:43;97079.25;;;23.64;76.04
17054;BME280;8643;48.824;11.422;2023-07-13T07:56:12;97093.06;;;22.84;75.44
17054;BME280;8643;48.824;11.422;2023-07-13T07:58:43;97099.06;;;21.98;71.83
17054;BME280;8643;48.824;11.422;2023-07-13T08:01:14;97086.44;;;21.36;79.81
17054;BME280;8643;48.824;11.422;2023-07-13T08:03:47;97073.31;;;21.36;84.96
17054;BME280;8643;48.824;11.422;2023-07-13T08:06:19;97084.06;;;21.45;83.60
17054;BME280;8643;48.824;11.422;2023-07-13T08:08:51;97088.03;;;21.55;82.56
17054;BME280;8643;48.824;11.422;2023-07-13T08:11:21;97092.75;;;21.90;80.16
17054;BME280;8643;48.824;11.422;2023-07-13T08:13:53;97109.72;;;22.21;80.26
17054;BME280;8643;48.824;11.422;2023-07-13T08:16:23;97109.34;;;22.30;75.58
17054;BME280;8643;48.824;11.422;2023-07-13T08:18:53;97098.16;;;22.26;81.85
17054;BME280;8643;48.824;11.422;2023-07-13T08:21:22;97095.09;;;21.99;84.35
17054;BME280;8643;48.824;11.422;2023-07-13T08:23:51;97107.34;;;22.23;75.18
17054;BME280;8643;48.824;11.422;2023-07-13T08:26:19;97097.56;;;21.65;77.67
17054;BME280;8643;48.824;11.422;2023-07-13T08:28:48;97104.16;;;22.18;76.26
17054;BME280;8643;48.824;11.422;2023-07-13T08:31:17;97104.81;;;23.17;72.60
17054;BME280;8643;48.824;11.422;2023-07-13T08:33:45;97109.47;;;24.14;70.57
17054;BME280;8643;48.824;11.422;2023-07-13T08:36:15;97116.03;;;24.01;66.35
17054;BME280;8643;48.824;11.422;2023-07-13T08:38:43;97121.31;;;24.26;59.30
17054;BME280;8643;48.824;11.422;2023-07-13T08:41:14;97110.66;;;24.17;62.39
17054;BME280;8643;48.824;11.422;2023-07-13T08:43:47;97114.47;;;23.54;62.37
17054;BME280;8643;48.824;11.422;2023-07-13T08:46:21;97105.69;;;23.07;64.08
17054;BME280;8643;48.824;11.422;2023-07-13T08:48:58;97107.72;;;22.25;65.81
17054;BME280;8643;48.824;11.422;2023-07-13T08:51:39;97113.81;;;22.02;66.11
17054;BME280;8643;48.824;11.422;2023-07-13T08:54:23;97104.13;;;22.28;64.86
17054;BME280;8643;48.824;11.422;2023-07-13T08:56:56;97116.72;;;22.65;65.00
17054;BME280;8643;48.824;11.422;2023-07-13T08:59:30;97124.34;;;23.17;55.98
17054;BME280;8643;48.824;11.422;2023-07-13T09:02:25;97123.50;;;23.69;56.36
17054;BME280;8643;48.824;11.422;2023-07-13T09:04:59;97128.81;;;23.56;57.48
17054;BME280;8643;48.824;11.422;2023-07-13T09:07:52;97120.00;;;23.61;58.30
17054;BME280;8643;48.824;11.422;2023-07-13T09:10:28;97126.00;;;24.02;54.49
17054;BME280;8643;48.824;11.422;2023-07-13T09:13:14;97123.25;;;24.63;52.32
17054;BME280;8643;48.824;11.422;2023-07-13T09:15:49;97120.84;;;25.43;50.28
17054;BME280;8643;48.824;11.422;2023-07-13T09:18:26;97125.03;;;25.79;47.05
17054;BME280;8643;48.824;11.422;2023-07-13T09:21:03;97127.88;;;25.55;48.99
17054;BME280;8643;48.824;11.422;2023-07-13T09:23:36;97129.13;;;25.74;48.79
17054;BME280;8643;48.824;11.422;2023-07-13T09:26:13;97120.28;;;26.00;48.36
17054;BME280;8643;48.824;11.422;2023-07-13T09:28:45;97120.69;;;26.58;47.49
17054;BME280;8643;48.824;11.422;2023-07-13T09:31:19;97121.63;;;26.51;46.13
17054;BME280;8643;48.824;11.422;2023-07-13T09:33:49;97120.63;;;26.42;49.13
17054;BME280;8643;48.824;11.422;2023-07-13T09:36:22;97117.03;;;26.41;45.51
17054;BME280;8643;48.824;11.422;2023-07-13T09:39:02;97115.88;;;26.19;46.39
17054;BME280;8643;48.824;11.422;2023-07-13T09:41:46;97109.47;;;26.38;46.06
17054;BME280;8643;48.824;11.422;2023-07-13T09:44:27;97119.28;;;26.10;44.56
17054;BME280;8643;48.824;11.422;2023-07-13T09:46:58;97116.16;;;26.04;46.91
17054;BME280;8643;48.824;11.422;2023-07-13T09:49:32;97119.66;;;25.45;42.97
17054;BME280;8643;48.824;11.422;2023-07-13T09:52:05;97119.63;;;24.94;44.68
17054;BME280;8643;48.824;11.422;2023-07-13T09:54:37;97114.44;;;24.65;45.81
17054;BME280;8643;48.824;11.422;2023-07-13T09:57:15;97118.16;;;24.24;47.03
17054;BME280;8643;48.824;11.422;2023-07-13T09:59:47;97129.41;;;24.16;46.13
17054;BME280;8643;48.824;11.422;2023-07-13T10:02:28;97130.63;;;24.15;46.53
17054;BME280;8643;48.824;11.422;2023-07-13T10:04:59;97127.81;;;23.81;47.86
17054;BME280;8643;48.824;11.422;2023-07-13T10:07:27;97128.97;;;23.42;47.13
17054;BME280;8643;48.824;11.422;2023-07-13T10:10:00;97137.16;;;23.64;49.85
17054;BME280;8643;48.824;11.422;2023-07-13T10:12:36;97141.16;;;24.39;47.23
17054;BME280;8643;48.824;11.422;2023-07-13T10:15:12;97132.19;;;24.82;46.31
17054;BME280;8643;48.824;11.422;2023-07-13T10:17:51;97140.41;;;24.69;46.36
17054;BME280;8643;48.824;11.422;2023-07-13T10:20:23;97133.16;;;25.26;46.00
17054;BME280;8643;48.824;11.422;2023-07-13T10:22:56;97139.63;;;25.70;43.74
17054;BME280;8643;48.824;11.422;2023-07-13T10:25:32;97134.03;;;25.47;44.95
17054;BME280;8643;48.824;11.422;2023-07-13T10:28:09;97140.34;;;25.98;42.76
17054;BME280;8643;48.824;11.422;2023-07-13T10:30:42;97141.53;;;26.97;43.40
17054;BME280;8643;48.824;11.422;2023-07-13T10:33:14;97153.63;;;26.94;43.08
17054;BME280;8643;48.824;11.422;2023-07-13T10:35:45;97146.84;;;27.61;39.02
17054;BME280;8643;48.824;11.422;2023-07-13T10:38:20;97140.81;;;28.08;41.15
17054;BME280;8643;48.824;11.422;2023-07-13T10:41:02;97134.44;;;27.75;37.27
17054;BME280;8643;48.824;11.422;2023-07-13T10:43:35;97146.69;;;28.14;37.95
17054;BME280;8643;48.824;11.422;2023-07-13T10:46:08;97147.88;;;28.29;39.13
17054;BME280;8643;48.824;11.422;2023-07-13T10:48:40;97139.78;;;28.02;36.86
17054;BME280;8643;48.824;11.422;2023-07-13T10:51:13;97133.13;;;28.38;37.74
17054;BME280;8643;48.824;11.422;2023-07-13T10:53:42;97136.06;;;29.02;37.10
17054;BME280;8643;48.824;11.422;2023-07-13T10:56:27;97136.16;;;28.99;37.27
17054;BME280;8643;48.824;11.422;2023-07-13T10:59:12;97133.44;;;28.69;37.23
17054;BME280;8643;48.824;11.422;2023-07-13T11:01:56;97127.34;;;28.71;39.29
17054;BME280;8643;48.824;11.422;2023-07-13T11:04:29;97131.88;;;29.07;36.72
17054;BME280;8643;48.824;11.422;2023-07-13T11:07:19;97125.34;;;28.00;40.43
17054;BME280;8643;48.824;11.422;2023-07-13T11:09:51;97134.25;;;27.16;41.32
17054;BME280;8643;48.824;11.422;2023-07-13T11:12:50;97131.31;;;28.02;42.32
17054;BME280;8643;48.824;11.422;2023-07-13T11:15:48;97128.75;;;29.18;36.77
17054;BME280;8643;48.824;11.422;2023-07-13T11:18:23;97120.41;;;28.88;37.35
17054;BME280;8643;48.824;11.422;2023-07-13T11:21:12;97115.88;;;29.04;37.31
17054;BME280;8643;48.824;11.422;2023-07-13T11:24:04;97114.69;;;28.50;37.94
17054;BME280;8643;48.824;11.422;2023-07-13T11:26:52;97111.13;;;28.62;37.42
17054;BME280;8643;48.824;11.422;2023-07-13T11:29:32;97107.47;;;28.36;37.81
17054;BME280;8643;48.824;11.422;2023-07-13T11:32:24;97102.47;;;28.95;39.17
17054;BME280;8643;48.824;11.422;2023-07-13T11:34:54;97105.19;;;29.24;36.53
17054;BME280;8643;48.824;11.422;2023-07-13T11:37:24;97111.09;;;27.91;38.94
17054;BME280;8643;48.824;11.422;2023-07-13T11:39:53;97106.44;;;27.38;40.49
17054;BME280;8643;48.824;11.422;2023-07-13T11:42:22;97119.34;;;28.27;39.80
17054;BME280;8643;48.824;11.422;2023-07-13T11:44:53;97110.47;;;29.35;38.58
17054;BME280;8643;48.824;11.422;2023-07-13T11:47:42;97113.19;;;29.39;36.43
17054;BME280;8643;48.824;11.422;2023-07-13T11:50:19;97108.78;;;27.73;37.07
17054;BME280;8643;48.824;11.422;2023-07-13T11:52:50;97111.06;;;27.29;40.95
17054;BME280;8643;48.824;11.422;2023-07-13T11:55:22;97112.63;;;26.97;40.49
17054;BME280;8643;48.824;11.422;2023-07-13T11:57:58;97115.34;;;27.00;39.62
17054;BME280;8643;48.824;11.422;2023-07-13T12:00:32;97110.31;;;25.51;43.79
17054;BME280;8643;48.824;11.422;2023-07-13T12:03:03;97105.13;;;24.10;44.90
17054;BME280;8643;48.824;11.422;2023-07-13T12:05:33;97108.84;;;24.65;45.89
17054;BME280;8643;48.824;11.422;2023-07-13T12:08:09;97101.22;;;25.20;46.98
17054;BME280;8643;48.824;11.422;2023-07-13T12:10:58;97100.66;;;27.75;40.66
17054;BME280;8643;48.824;11.422;2023-07-13T12:13:28;97099.19;;;28.29;38.30
17054;BME280;8643;48.824;11.422;2023-07-13T12:15:59;97083.47;;;28.44;39.49
17054;BME280;8643;48.824;11.422;2023-07-13T12:18:30;97093.13;;;28.98;35.92
17054;BME280;8643;48.824;11.422;2023-07-13T12:21:01;97087.38;;;28.89;34.46
17054;BME280;8643;48.824;11.422;2023-07-13T12:23:34;97082.94;;;29.01;34.36
17054;BME280;8643;48.824;11.422;2023-07-13T12:26:05;97083.06;;;28.71;33.81
17054;BME280;8643;48.824;11.422;2023-07-13T12:28:38;97086.91;;;28.78;35.28
17054;BME280;8643;48.824;11.422;2023-07-13T12:31:26;97083.41;;;29.12;34.50
17054;BME280;8643;48.824;11.422;2023-07-13T12:34:01;97090.88;;;29.19;36.35
17054;BME280;8643;48.824;11.422;2023-07-13T12:36:33;97083.38;;;29.38;33.73
17054;BME280;8643;48.824;11.422;2023-07-13T12:39:12;97079.59;;;29.67;34.64
17054;BME280;8643;48.824;11.422;2023-07-13T12:41:41;97077.88;;;29.34;34.51
17054;BME280;8643;48.824;11.422;2023-07-13T12:44:17;97075.38;;;29.36;34.58
17054;BME280;8643;48.824;11.422;2023-07-13T12:46:58;97071.56;;;29.78;34.88
17054;BME280;8643;48.824;11.422;2023-07-13T12:49:31;97074.03;;;29.41;33.72
17054;BME280;8643;48.824;11.422;2023-07-13T12:52:13;97070.41;;;29.53;33.04
17054;BME280;8643;48.824;11.422;2023-07-13T12:54:53;97074.28;;;29.34;33.91
17054;BME280;8643;48.824;11.422;2023-07-13T12:57:38;97063.41;;;29.45;34.61
17054;BME280;8643;48.824;11.422;2023-07-13T13:00:24;97073.97;;;29.19;33.36
17054;BME280;8643;48.824;11.422;2023-07-13T13:02:56;97066.63;;;29.21;32.54
17054;BME280;8643;48.824;11.422;2023-07-13T13:05:29;97069.44;;;28.83;33.19
17054;BME280;8643;48.824;11.422;2023-07-13T13:07:58;97071.72;;;27.91;34.82
17054;BME280;8643;48.824;11.422;2023-07-13T13:10:27;97056.81;;;27.32;37.56
17054;BME280;8643;48.824;11.422;2023-07-13T13:12:56;97054.16;;;28.29;37.51
17054;BME280;8643;48.824;11.422;2023-07-13T13:15:24;97053.00;;;28.13;34.78
17054;BME280;8643;48.824;11.422;2023-07-13T13:17:55;97052.06;;;27.74;36.60
17054;BME280;8643;48.824;11.422;2023-07-13T13:20:26;97045.38;;;27.06;37.37